createdAt,value
2018-06-28T00:01:13.451Z,8.50
2018-06-28T00:03:42.189Z,8.37
2018-06-28T00:06:10.855Z,7.93
2018-06-28T00:08:39.619Z,8.20
2018-06-28T00:11:08.628Z,6.07
2018-06-28T00:13:37.410Z,6.60
2018-06-28T00:16:06.274Z,8.47
2018-06-28T00:18:35.038Z,7.70
2018-06-28T00:21:03.799Z,6.40
2018-06-28T00:23:32.558Z,6.23
2018-06-28T00:26:01.350Z,6.37
2018-06-28T00:28:30.063Z,7.17
2018-06-28T00:30:58.722Z,6.50
2018-06-28T00:33:27.404Z,6.13
2018-06-28T00:35:56.092Z,6.13
2018-06-28T00:38:24.840Z,8.57
2018-06-28T00:40:53.528Z,9.93
2018-06-28T00:43:22.173Z,6.07
2018-06-28T00:45:50.802Z,6.10
2018-06-28T00:48:19.477Z,7.30
2018-06-28T00:50:48.150Z,6.23
2018-06-28T00:53:16.774Z,7.23
2018-06-28T00:55:45.435Z,6.63
2018-06-28T00:58:14.121Z,7.73
2018-06-28T01:00:42.769Z,6.63
2018-06-28T01:03:11.520Z,9.37
2018-06-28T01:05:40.230Z,9.70
2018-06-28T01:08:09.012Z,8.43
2018-06-28T01:10:37.713Z,6.20
2018-06-28T01:13:06.764Z,7.27
2018-06-28T01:15:35.500Z,5.93
2018-06-28T01:18:04.254Z,8.67
2018-06-28T01:20:33.016Z,5.27
2018-06-28T01:23:01.740Z,6.63
2018-06-28T01:25:30.509Z,5.30
2018-06-28T01:27:59.124Z,5.57
2018-06-28T01:30:28.026Z,5.33
2018-06-28T01:32:56.748Z,7.27
2018-06-28T01:35:25.514Z,5.10
2018-06-28T01:37:54.160Z,6.07
2018-06-28T01:40:23.157Z,7.97
2018-06-28T01:43:02.694Z,5.03
2018-06-28T01:45:31.407Z,6.47
2018-06-28T01:48:00.077Z,6.80
2018-06-28T01:50:28.742Z,5.60
2018-06-28T01:52:57.370Z,6.43
2018-06-28T01:55:26.045Z,5.23
2018-06-28T01:57:54.708Z,5.97
2018-06-28T02:00:23.358Z,5.30
2018-06-28T02:02:52.518Z,8.00
2018-06-28T02:05:21.275Z,5.43
2018-06-28T02:07:49.966Z,6.43
2018-06-28T02:10:18.672Z,5.90
2018-06-28T02:12:47.373Z,5.60
2018-06-28T02:15:16.010Z,5.30
2018-06-28T02:17:44.651Z,6.17
2018-06-28T02:20:13.382Z,5.63
2018-06-28T02:22:42.005Z,6.87
2018-06-28T02:25:10.678Z,6.47
2018-06-28T02:27:39.376Z,5.57
2018-06-28T02:30:08.075Z,5.97
2018-06-28T02:32:36.803Z,5.67
2018-06-28T02:35:05.674Z,5.63
2018-06-28T02:37:34.457Z,6.20
2018-06-28T02:40:03.164Z,5.67
2018-06-28T02:42:33.010Z,8.30
2018-06-28T02:45:01.693Z,5.97
2018-06-28T02:47:30.373Z,5.30
2018-06-28T02:49:59.579Z,7.13
2018-06-28T02:52:28.398Z,6.30
2018-06-28T02:54:57.423Z,5.93
2018-06-28T02:57:26.302Z,6.10
2018-06-28T02:59:55.018Z,7.90
2018-06-28T03:02:23.990Z,6.13
2018-06-28T03:04:52.841Z,7.03
2018-06-28T03:07:21.615Z,7.33
2018-06-28T03:09:50.389Z,5.43
2018-06-28T03:12:19.359Z,5.77
2018-06-28T03:14:48.140Z,8.47
2018-06-28T03:17:16.851Z,6.40
2018-06-28T03:19:45.689Z,5.87
2018-06-28T03:22:14.386Z,6.60
2018-06-28T03:24:43.219Z,6.10
2018-06-28T03:27:11.868Z,6.60
2018-06-28T03:29:40.610Z,7.33
2018-06-28T03:32:09.230Z,6.93
2018-06-28T03:34:37.969Z,7.13
2018-06-28T03:37:06.694Z,6.67
2018-06-28T03:39:35.388Z,6.50
2018-06-28T03:42:04.163Z,7.67
2018-06-28T03:44:32.871Z,6.70
2018-06-28T03:47:01.603Z,8.03
2018-06-28T03:49:30.398Z,7.13
2018-06-28T03:51:59.195Z,6.77
2018-06-28T03:54:28.220Z,6.50
2018-06-28T03:56:56.931Z,6.57
2018-06-28T03:59:25.684Z,5.63
2018-06-28T04:01:54.474Z,6.87
2018-06-28T04:04:23.221Z,6.90
2018-06-28T04:06:51.941Z,8.07
2018-06-28T04:09:20.681Z,7.13
2018-06-28T04:11:49.411Z,6.93
2018-06-28T04:14:18.128Z,7.27
2018-06-28T04:16:46.880Z,10.37
2018-06-28T04:19:15.565Z,7.47
2018-06-28T04:21:44.349Z,8.03
2018-06-28T04:24:13.098Z,7.47
2018-06-28T04:26:41.917Z,8.23
2018-06-28T04:29:10.684Z,9.20
2018-06-28T04:31:39.599Z,7.83
2018-06-28T04:34:08.450Z,9.00
2018-06-28T04:36:37.211Z,7.43
2018-06-28T04:39:08.595Z,8.47
2018-06-28T04:41:37.502Z,8.40
2018-06-28T04:44:06.187Z,13.90
2018-06-28T04:46:34.923Z,9.33
2018-06-28T04:49:03.653Z,8.17
2018-06-28T04:51:32.440Z,10.07
2018-06-28T04:54:01.177Z,8.70
2018-06-28T04:56:29.990Z,8.63
2018-06-28T04:58:58.787Z,9.37
2018-06-28T05:01:27.735Z,9.40
2018-06-28T05:03:56.938Z,9.80
2018-06-28T05:06:25.730Z,10.00
2018-06-28T05:08:54.501Z,9.83
2018-06-28T05:11:23.251Z,10.17
2018-06-28T05:13:51.987Z,9.90
2018-06-28T05:16:20.702Z,9.20
2018-06-28T05:18:49.368Z,9.80
2018-06-28T05:21:18.089Z,10.33
2018-06-28T05:23:46.911Z,9.57
2018-06-28T05:26:15.768Z,9.10
2018-06-28T05:28:44.591Z,9.60
2018-06-28T05:31:13.382Z,9.47
2018-06-28T05:33:42.200Z,9.87
2018-06-28T05:36:10.928Z,9.40
2018-06-28T05:38:39.730Z,9.37
2018-06-28T05:41:08.505Z,8.50
2018-06-28T05:43:37.342Z,10.45
2018-06-28T05:46:06.249Z,9.68
2018-06-28T05:48:35.031Z,10.60
2018-06-28T05:51:03.872Z,10.03
2018-06-28T05:53:32.639Z,10.08
2018-06-28T05:56:01.491Z,10.63
2018-06-28T05:58:30.224Z,10.45
2018-06-28T06:00:58.964Z,10.85
2018-06-28T06:03:27.752Z,10.28
2018-06-28T06:05:56.558Z,10.85
2018-06-28T06:08:25.244Z,11.08
2018-06-28T06:10:53.959Z,9.75
2018-06-28T06:13:22.649Z,9.85
2018-06-28T06:15:51.408Z,10.00
2018-06-28T06:18:20.097Z,10.25
2018-06-28T06:20:48.793Z,9.20
2018-06-28T06:23:17.501Z,10.48
2018-06-28T06:25:46.286Z,10.70
2018-06-28T06:28:14.921Z,10.50
2018-06-28T06:30:43.816Z,10.13
2018-06-28T06:33:12.389Z,10.53
2018-06-28T06:35:41.154Z,11.80
2018-06-28T06:38:09.879Z,14.43
2018-06-28T06:40:38.600Z,10.53
2018-06-28T06:43:07.403Z,10.85
2018-06-28T06:45:36.105Z,9.35
2018-06-28T06:48:04.824Z,9.48
2018-06-28T06:50:33.447Z,11.35
2018-06-28T06:53:02.059Z,13.00
2018-06-28T06:55:30.769Z,11.60
2018-06-28T06:57:59.735Z,9.75
2018-06-28T07:00:28.577Z,9.18
2018-06-28T07:02:57.351Z,11.65
2018-06-28T07:05:26.283Z,12.15
2018-06-28T07:07:55.252Z,15.18
2018-06-28T07:10:24.125Z,12.75
2018-06-28T07:12:53.028Z,12.93
2018-06-28T07:15:21.797Z,11.43
2018-06-28T07:17:50.607Z,12.55
2018-06-28T07:20:20.829Z,11.33
2018-06-28T07:22:49.840Z,13.05
2018-06-28T07:25:19.021Z,11.70
2018-06-28T07:27:48.098Z,11.75
2018-06-28T07:30:23.590Z,10.65
2018-06-28T07:32:52.395Z,11.40
2018-06-28T07:35:21.173Z,9.88
2018-06-28T07:37:50.060Z,10.40
2018-06-28T07:40:18.721Z,10.43
2018-06-28T07:42:47.408Z,12.73
2018-06-28T07:45:16.078Z,10.88
2018-06-28T07:47:44.762Z,12.00
2018-06-28T07:50:13.468Z,15.88
2018-06-28T07:52:42.124Z,16.67
2018-06-28T07:55:10.778Z,11.93
2018-06-28T07:57:39.466Z,11.50
2018-06-28T08:00:08.517Z,11.75
2018-06-28T08:02:37.813Z,13.32
2018-06-28T08:05:06.735Z,12.73
2018-06-28T08:07:35.546Z,11.83
2018-06-28T08:10:04.439Z,12.70
2018-06-28T08:12:37.165Z,12.55
2018-06-28T08:15:06.027Z,12.03
2018-06-28T08:17:34.728Z,12.75
2018-06-28T08:20:03.853Z,13.08
2018-06-28T08:22:32.587Z,12.63
2018-06-28T08:25:01.383Z,11.60
2018-06-28T08:27:30.298Z,10.63
2018-06-28T08:29:59.229Z,13.93
2018-06-28T08:32:27.976Z,11.48
2018-06-28T08:34:56.844Z,12.15
2018-06-28T08:37:25.558Z,11.50
2018-06-28T08:39:54.339Z,12.55
2018-06-28T08:42:25.276Z,14.78
2018-06-28T08:44:54.764Z,12.63
2018-06-28T08:47:23.543Z,12.65
2018-06-28T08:49:52.752Z,11.35
2018-06-28T08:52:21.462Z,11.28
2018-06-28T08:54:51.506Z,12.30
2018-06-28T08:57:21.779Z,13.20
2018-06-28T09:00:03.616Z,13.80
2018-06-28T09:02:36.219Z,12.13
2018-06-28T09:05:06.554Z,14.60
2018-06-28T09:07:36.470Z,13.22
2018-06-28T09:10:07.072Z,11.95
2018-06-28T09:12:37.080Z,13.98
2018-06-28T09:15:07.378Z,12.07
2018-06-28T09:17:36.733Z,11.60
2018-06-28T09:20:06.873Z,12.20
2018-06-28T09:22:36.903Z,13.83
2018-06-28T09:25:08.247Z,12.95
2018-06-28T09:27:38.180Z,13.88
2018-06-28T09:30:08.607Z,14.00
2018-06-28T09:32:38.199Z,14.75
2018-06-28T09:35:08.315Z,13.98
2018-06-28T09:37:37.975Z,12.50
2018-06-28T09:40:08.191Z,13.00
2018-06-28T09:42:38.639Z,12.18
2018-06-28T09:45:08.746Z,12.98
2018-06-28T09:47:38.071Z,12.82
2018-06-28T09:50:07.456Z,14.43
2018-06-28T09:52:36.517Z,14.18
2018-06-28T09:55:05.773Z,14.35
2018-06-28T09:57:34.943Z,18.30
2018-06-28T10:00:04.624Z,14.83
2018-06-28T10:02:33.867Z,14.60
2018-06-28T10:05:03.186Z,14.73
2018-06-28T10:07:32.593Z,18.67
2018-06-28T10:10:01.980Z,16.48
2018-06-28T10:12:31.158Z,14.98
2018-06-28T10:15:00.480Z,16.07
2018-06-28T10:17:29.833Z,14.90
2018-06-28T10:19:59.487Z,17.73
2018-06-28T10:22:29.180Z,14.73
2018-06-28T10:24:59.087Z,15.98
2018-06-28T10:27:28.647Z,15.78
2018-06-28T10:29:58.250Z,16.93
2018-06-28T10:32:27.785Z,15.83
2018-06-28T10:34:57.070Z,18.40
2018-06-28T10:37:26.799Z,17.85
2018-06-28T10:39:56.125Z,15.38
2018-06-28T10:42:25.823Z,16.77
2018-06-28T10:44:55.146Z,18.60
2018-06-28T10:47:24.704Z,17.10
2018-06-28T10:49:54.050Z,16.40
2018-06-28T10:52:23.636Z,16.95
2018-06-28T10:54:53.534Z,16.42
2018-06-28T10:57:22.908Z,15.88
2018-06-28T10:59:52.090Z,17.10
2018-06-28T11:02:21.709Z,14.40
2018-06-28T11:04:51.354Z,13.88
2018-06-28T11:07:20.702Z,15.58
2018-06-28T11:09:49.798Z,15.70
2018-06-28T11:12:19.085Z,16.73
2018-06-28T11:14:48.461Z,15.90
2018-06-28T11:17:17.957Z,14.83
2018-06-28T11:19:47.526Z,16.52
2018-06-28T11:22:16.918Z,14.43
2018-06-28T11:24:47.055Z,17.50
2018-06-28T11:27:16.639Z,15.68
2018-06-28T11:29:46.316Z,15.40
2018-06-28T11:32:16.461Z,14.83
2018-06-28T11:34:45.945Z,17.70
2018-06-28T11:37:15.356Z,14.93
2018-06-28T11:39:44.741Z,16.10
2018-06-28T11:42:15.327Z,16.23
2018-06-28T11:44:44.610Z,18.62
2018-06-28T11:47:14.008Z,18.50
2018-06-28T11:49:43.258Z,16.15
2018-06-28T11:52:12.752Z,16.32
2018-06-28T11:54:42.881Z,22.10
2018-06-28T11:57:12.781Z,17.73
2018-06-28T11:59:42.717Z,18.62
2018-06-28T12:02:12.173Z,20.55
2018-06-28T12:04:41.364Z,23.22
2018-06-28T12:07:10.717Z,23.07
2018-06-28T12:09:39.952Z,19.60
2018-06-28T12:12:09.206Z,23.05
2018-06-28T12:14:38.304Z,23.22
2018-06-28T12:17:07.712Z,20.35
2018-06-28T12:19:37.245Z,25.40
2018-06-28T12:22:06.396Z,24.98
2018-06-28T12:24:35.675Z,23.00
2018-06-28T12:27:05.725Z,25.05
2018-06-28T12:29:34.965Z,25.17
2018-06-28T12:32:04.807Z,23.05
2018-06-28T12:34:33.849Z,25.05
2018-06-28T12:37:02.890Z,22.93
2018-06-28T12:39:32.430Z,26.15
2018-06-28T12:42:01.816Z,22.13
2018-06-28T12:44:31.289Z,19.90
2018-06-28T12:47:38.427Z,18.62
2018-06-28T12:50:07.924Z,15.63
2018-06-28T12:52:45.915Z,18.62
2018-06-28T12:55:17.282Z,19.55
2018-06-28T12:57:46.920Z,17.27
2018-06-28T13:00:16.650Z,15.18
2018-06-28T13:02:46.221Z,17.67
2018-06-28T13:05:16.362Z,18.40
2018-06-28T13:07:45.639Z,17.60
2018-06-28T13:10:16.618Z,16.67
2018-06-28T13:12:45.998Z,16.70
2018-06-28T13:15:15.816Z,17.95
2018-06-28T13:17:45.152Z,16.75
2018-06-28T13:20:14.739Z,18.67
2018-06-28T13:22:43.969Z,19.23
2018-06-28T13:25:13.577Z,19.10
2018-06-28T13:27:43.126Z,19.05
2018-06-28T13:30:12.547Z,19.05
2018-06-28T13:32:41.963Z,18.10
2018-06-28T13:35:11.832Z,14.60
2018-06-28T13:37:41.856Z,15.90
2018-06-28T13:40:11.093Z,14.13
2018-06-28T13:42:40.332Z,14.40
2018-06-28T13:45:09.763Z,13.75
2018-06-28T13:47:39.040Z,13.15
2018-06-28T13:50:08.461Z,12.33
2018-06-28T13:52:37.432Z,12.13
2018-06-28T13:55:06.319Z,12.25
2018-06-28T13:57:35.393Z,16.85
2018-06-28T14:00:04.511Z,11.60
2018-06-28T14:02:33.494Z,11.48
2018-06-28T14:05:02.503Z,9.98
2018-06-28T14:07:31.656Z,11.53
2018-06-28T14:10:00.643Z,12.98
2018-06-28T14:12:29.824Z,10.85
2018-06-28T14:14:59.143Z,12.58
2018-06-28T14:17:28.200Z,11.10
2018-06-28T14:19:57.371Z,9.98
2018-06-28T14:22:26.227Z,11.63
2018-06-28T14:24:55.367Z,12.03
2018-06-28T14:27:24.442Z,14.10
2018-06-28T14:29:53.549Z,10.72
2018-06-28T14:32:22.588Z,12.33
2018-06-28T14:34:51.698Z,10.90
2018-06-28T14:37:20.790Z,10.23
2018-06-28T14:39:49.871Z,10.03
2018-06-28T14:42:18.901Z,10.90
2018-06-28T14:44:47.925Z,10.60
2018-06-28T14:47:17.163Z,11.60
2018-06-28T14:49:46.166Z,10.80
2018-06-28T14:52:15.128Z,10.53
2018-06-28T14:54:44.470Z,10.40
2018-06-28T14:57:14.191Z,11.68
2018-06-28T14:59:43.453Z,11.93
2018-06-28T15:02:12.608Z,13.55
2018-06-28T15:04:41.722Z,9.65
2018-06-28T15:07:11.030Z,12.30
2018-06-28T15:09:40.141Z,14.45
2018-06-28T15:12:09.288Z,14.05
2018-06-28T15:14:38.443Z,10.43
2018-06-28T15:17:08.398Z,11.43
2018-06-28T15:19:38.018Z,10.60
2018-06-28T15:22:11.502Z,11.22
2018-06-28T15:24:40.664Z,11.95
2018-06-28T15:27:09.949Z,12.15
2018-06-28T15:29:39.178Z,10.07
2018-06-28T15:32:08.549Z,13.80
2018-06-28T15:34:37.758Z,12.70
2018-06-28T15:37:07.264Z,15.23
2018-06-28T15:39:36.532Z,9.43
2018-06-28T15:42:05.729Z,11.48
2018-06-28T15:44:34.799Z,11.18
2018-06-28T15:47:04.036Z,9.80
2018-06-28T15:49:33.283Z,10.18
2018-06-28T15:52:02.456Z,10.82
2018-06-28T15:54:31.259Z,10.72
2018-06-28T15:57:00.602Z,12.85
2018-06-28T15:59:29.423Z,10.98
2018-06-28T16:01:58.511Z,9.78
2018-06-28T16:04:29.873Z,11.43
2018-06-28T16:07:02.283Z,19.57
2018-06-28T16:09:31.644Z,17.02
2018-06-28T16:12:01.453Z,12.40
2018-06-28T16:14:30.888Z,19.25
2018-06-28T16:17:00.165Z,25.53
2018-06-28T16:19:29.536Z,13.38
2018-06-28T16:21:59.244Z,12.73
2018-06-28T16:24:29.165Z,14.20
2018-06-28T16:26:58.945Z,14.83
2018-06-28T16:29:28.396Z,20.70
2018-06-28T16:31:58.013Z,13.68
2018-06-28T16:34:27.601Z,14.25
2018-06-28T16:36:57.063Z,19.07
2018-06-28T16:39:27.192Z,44.33
2018-06-28T16:41:56.528Z,18.37
2018-06-28T16:44:26.680Z,19.65
2018-06-28T16:46:56.201Z,16.45
2018-06-28T16:49:26.496Z,19.98
2018-06-28T16:51:55.948Z,15.93
2018-06-28T16:54:26.133Z,15.15
2018-06-28T16:56:56.226Z,13.38
2018-06-28T16:59:26.009Z,13.50
2018-06-28T17:01:55.579Z,19.63
2018-06-28T17:04:26.316Z,12.10
2018-06-28T17:06:56.221Z,10.80
2018-06-28T17:09:25.968Z,11.73
2018-06-28T17:11:55.991Z,12.73
2018-06-28T17:14:25.247Z,13.60
2018-06-28T17:16:54.643Z,14.15
2018-06-28T17:19:25.362Z,16.73
2018-06-28T17:21:56.596Z,12.53
2018-06-28T17:24:26.055Z,13.43
2018-06-28T17:26:56.558Z,17.48
2018-06-28T17:29:26.060Z,20.02
2018-06-28T17:31:55.810Z,20.25
2018-06-28T17:34:25.509Z,19.07
2018-06-28T17:36:55.712Z,28.73
2018-06-28T17:39:24.978Z,16.93
2018-06-28T17:41:54.444Z,19.23
2018-06-28T17:44:23.910Z,14.10
2018-06-28T17:46:53.217Z,16.53
2018-06-28T17:49:22.417Z,18.67
2018-06-28T17:51:51.549Z,18.40
2018-06-28T17:54:20.796Z,16.12
2018-06-28T17:56:50.279Z,14.58
2018-06-28T17:59:19.628Z,14.38
2018-06-28T18:01:48.878Z,25.62
2018-06-28T18:04:18.109Z,14.07
2018-06-28T18:06:47.188Z,14.47
2018-06-28T18:09:16.383Z,15.43
2018-06-28T18:11:45.756Z,14.30
2018-06-28T18:14:15.163Z,16.17
2018-06-28T18:16:44.279Z,16.07
2018-06-28T18:19:13.491Z,17.50
2018-06-28T18:21:44.179Z,15.13
2018-06-28T18:24:14.557Z,16.62
2018-06-28T18:26:43.680Z,17.80
2018-06-28T18:29:13.277Z,15.43
2018-06-28T18:31:42.782Z,18.30
2018-06-28T18:34:12.264Z,17.57
2018-06-28T18:36:41.601Z,16.95
2018-06-28T18:39:11.477Z,19.60
2018-06-28T18:41:41.418Z,27.37
2018-06-28T18:44:11.169Z,19.90
2018-06-28T18:46:41.921Z,16.20
2018-06-28T18:49:11.539Z,16.95
2018-06-28T18:51:41.580Z,32.40
2018-06-28T18:54:10.788Z,19.97
2018-06-28T18:56:40.651Z,20.47
2018-06-28T18:59:10.078Z,21.80
2018-06-28T19:01:39.700Z,23.42
2018-06-28T19:04:09.241Z,25.25
2018-06-28T19:06:39.388Z,23.18
2018-06-28T19:09:10.896Z,17.37
2018-06-28T19:11:40.389Z,23.32
2018-06-28T19:14:14.888Z,32.28
2018-06-28T19:16:49.421Z,39.63
2018-06-28T19:19:18.890Z,36.23
2018-06-28T19:21:53.571Z,27.73
2018-06-28T19:24:23.562Z,24.90
2018-06-28T19:26:52.698Z,72.42
2018-06-28T19:29:27.341Z,105.15
2018-06-28T19:32:02.157Z,28.32
2018-06-28T19:34:31.715Z,36.50
2018-06-28T19:37:01.477Z,27.87
2018-06-28T19:39:36.264Z,36.50
2018-06-28T19:43:09.439Z,24.80
2018-06-28T19:45:40.201Z,23.32
2018-06-28T19:48:10.324Z,23.33
2018-06-28T19:50:45.649Z,29.42
2018-06-28T19:53:16.934Z,23.50
2018-06-28T19:55:46.933Z,22.77
2018-06-28T19:58:16.884Z,20.27
2018-06-28T20:00:52.515Z,22.23
2018-06-28T20:03:28.247Z,21.27
2018-06-28T20:05:58.231Z,19.07
2018-06-28T20:08:28.218Z,19.02
2018-06-28T20:10:58.052Z,19.82
2018-06-28T20:13:33.062Z,21.77
2018-06-28T20:16:07.537Z,21.30
2018-06-28T20:18:41.982Z,20.53
2018-06-28T20:21:11.940Z,20.88
2018-06-28T20:23:41.811Z,25.57
2018-06-28T20:26:16.598Z,22.85
2018-06-28T20:28:51.505Z,20.97
2018-06-28T20:31:26.324Z,21.93
2018-06-28T20:34:01.218Z,19.80
2018-06-28T20:36:31.766Z,25.27
2018-06-28T20:39:03.453Z,25.60
2018-06-28T20:41:38.054Z,21.23
2018-06-28T20:44:13.552Z,25.60
2018-06-28T20:46:43.662Z,26.20
2018-06-28T20:49:13.982Z,23.77
2018-06-28T20:51:46.726Z,27.07
2018-06-28T20:54:17.612Z,21.87
2018-06-28T20:56:48.461Z,25.87
2018-06-28T20:59:20.149Z,27.70
2018-06-28T21:01:49.668Z,28.07
2018-06-28T21:04:19.182Z,21.27
2018-06-28T21:06:48.581Z,23.77
2018-06-28T21:09:18.408Z,29.53
2018-06-28T21:11:48.806Z,25.80
2018-06-28T21:14:18.122Z,30.17
2018-06-28T21:16:47.477Z,27.47
2018-06-28T21:19:16.877Z,27.33
2018-06-28T21:21:46.477Z,29.37
2018-06-28T21:24:15.778Z,33.00
2018-06-28T21:26:45.045Z,25.73
2018-06-28T21:29:14.415Z,85.93
2018-06-28T21:31:43.946Z,191.67
2018-06-28T21:34:13.303Z,51.67
2018-06-28T21:36:42.714Z,94.03
2018-06-28T21:39:12.437Z,33.57
2018-06-28T21:41:41.741Z,37.57
2018-06-28T21:44:11.108Z,130.80
2018-06-28T21:46:40.506Z,54.47
2018-06-28T21:49:09.737Z,40.97
2018-06-28T21:51:39.126Z,37.67
2018-06-28T21:54:08.509Z,36.10
2018-06-28T21:56:38.001Z,38.63
2018-06-28T21:59:07.364Z,34.43
2018-06-28T22:01:37.070Z,30.23
2018-06-28T22:04:06.516Z,29.30
2018-06-28T22:06:35.806Z,34.77
2018-06-28T22:09:05.926Z,33.80
2018-06-28T22:11:35.258Z,29.43
2018-06-28T22:14:04.646Z,28.53
2018-06-28T22:16:33.933Z,27.60
2018-06-28T22:19:03.477Z,31.03
2018-06-28T22:21:32.988Z,27.80
2018-06-28T22:24:02.433Z,26.73
2018-06-28T22:26:31.754Z,32.67
2018-06-28T22:29:01.097Z,32.30
2018-06-28T22:31:30.542Z,31.10
2018-06-28T22:34:00.212Z,37.13
2018-06-28T22:36:29.737Z,24.93
2018-06-28T22:39:00.038Z,30.27
2018-06-28T22:41:29.562Z,27.70
2018-06-28T22:43:59.377Z,64.00
2018-06-28T22:46:30.009Z,43.17
2018-06-28T22:48:59.928Z,40.60
2018-06-28T22:51:33.512Z,36.30
2018-06-28T22:54:03.075Z,26.33
2018-06-28T22:56:32.618Z,28.90
2018-06-28T22:59:02.111Z,25.27
2018-06-28T23:01:31.650Z,24.97
2018-06-28T23:04:01.071Z,23.07
2018-06-28T23:06:30.822Z,28.53
2018-06-28T23:09:00.096Z,33.20
2018-06-28T23:11:29.264Z,31.80
2018-06-28T23:13:58.622Z,30.23
2018-06-28T23:16:27.849Z,30.33
2018-06-28T23:18:57.346Z,33.17
2018-06-28T23:21:26.575Z,26.97
2018-06-28T23:23:55.722Z,26.27
2018-06-28T23:26:24.914Z,23.90
2018-06-28T23:28:54.428Z,27.93
2018-06-28T23:31:24.070Z,28.30
2018-06-28T23:33:54.105Z,30.17
2018-06-28T23:36:24.417Z,29.17
2018-06-28T23:38:55.594Z,26.40
2018-06-28T23:41:25.510Z,27.70
2018-06-28T23:44:07.865Z,28.70
2018-06-28T23:46:37.942Z,23.43
2018-06-28T23:49:13.677Z,23.13
2018-06-28T23:51:43.744Z,28.20
2018-06-28T23:54:16.875Z,22.77
2018-06-28T23:56:51.558Z,38.42
2018-06-28T23:59:41.285Z,28.55
